Time;durP1;ratioP1;P1;durP2;ratioP2;P2;SDS_P1;SDS_P2;PMS_P1;PMS_P2;Temp;Humidity;BMP_temperature;BMP_pressure;BME280_temperature;BME280_humidity;BME280_pressure;Samples;Min_cycle;Max_cycle;Signal;HPM_P1;HPM_P2
2021/03/04 00:00:47;;;;;;;9.53;7.10;;;;;;;12.98;44.32;97010.72;5057741;28;20179;-62
2021/03/04 00:03:13;;;;;;;8.87;7.40;;;;;;;13.03;44.67;97016.94;5051648;28;20190;-61
2021/03/04 00:05:39;;;;;;;10.20;7.60;;;;;;;12.79;43.42;97020.50;5051583;28;20697;-64
2021/03/04 00:08:05;;;;;;;9.00;7.40;;;;;;;12.33;45.36;97012.34;5051061;28;20203;-61
2021/03/04 00:10:30;;;;;;;10.33;7.90;;;;;;;11.96;47.54;97015.97;5051432;28;20176;-61
2021/03/04 00:12:56;;;;;;;8.77;6.83;;;;;;;11.75;47.29;97011.94;5051038;28;20943;-59
2021/03/04 00:15:26;;;;;;;10.77;7.63;;;;;;;12.00;47.46;97014.53;5051189;28;20179;-62
2021/03/04 00:17:51;;;;;;;9.63;7.50;;;;;;;12.23;47.97;97009.41;5052053;28;20438;-63
2021/03/04 00:20:20;;;;;;;9.53;7.73;;;;;;;11.91;47.23;97003.47;5051231;28;20436;-64
2021/03/04 00:22:46;;;;;;;8.53;7.63;;;;;;;11.80;46.93;97000.75;5057262;28;20183;-59
2021/03/04 00:25:12;;;;;;;9.27;7.50;;;;;;;12.13;48.22;96998.59;5070327;28;20438;-59
2021/03/04 00:27:39;;;;;;;11.30;8.50;;;;;;;12.38;47.84;96996.69;5070882;28;20457;-62
2021/03/04 00:30:05;;;;;;;9.90;7.33;;;;;;;12.20;47.25;96999.31;5071052;28;20913;-58
2021/03/04 00:32:31;;;;;;;12.30;8.00;;;;;;;12.33;47.45;97001.81;5068685;28;20424;-60
2021/03/04 00:34:56;;;;;;;7.93;6.57;;;;;;;12.12;45.53;97003.03;5059657;28;20935;-57
2021/03/04 00:37:21;;;;;;;7.77;6.50;;;;;;;12.17;45.29;96999.78;5050219;28;20191;-61
2021/03/04 00:39:47;;;;;;;10.87;6.87;;;;;;;12.06;42.76;96989.97;5050827;28;20278;-62
2021/03/04 00:42:12;;;;;;;10.13;6.20;;;;;;;12.09;43.03;96987.69;5051169;28;20172;-59
2021/03/04 00:44:38;;;;;;;8.30;6.50;;;;;;;11.58;43.25;96981.09;5051018;28;20175;-57
2021/03/04 00:47:04;;;;;;;7.50;6.40;;;;;;;11.49;43.94;96980.53;5051421;28;20203;-59
2021/03/04 00:49:29;;;;;;;10.27;7.10;;;;;;;11.81;43.07;96983.94;5050441;28;20705;-62
2021/03/04 00:51:56;;;;;;;8.03;7.23;;;;;;;11.95;45.65;96988.84;5050825;28;20437;-64
2021/03/04 00:54:21;;;;;;;7.60;6.33;;;;;;;12.17;46.12;96986.59;5050484;28;20175;-62
2021/03/04 00:56:46;;;;;;;9.70;6.80;;;;;;;12.36;46.46;96983.72;5050380;28;20414;-62
2021/03/04 00:59:12;;;;;;;7.67;6.77;;;;;;;12.43;46.40;96975.72;5056872;28;20198;-62
2021/03/04 01:01:37;;;;;;;9.07;7.30;;;;;;;12.49;46.44;96972.22;5070062;28;20259;-63
2021/03/04 01:04:03;;;;;;;7.60;6.57;;;;;;;12.47;46.28;96971.63;5054132;28;20205;-59
2021/03/04 01:06:28;;;;;;;8.53;7.57;;;;;;;12.45;45.71;96978.94;5050262;28;20195;-62
2021/03/04 01:08:53;;;;;;;7.97;6.30;;;;;;;12.51;46.40;96978.06;5059301;28;20198;-56
2021/03/04 01:11:19;;;;;;;8.30;6.93;;;;;;;12.49;45.78;96966.13;5052458;28;20617;-57
2021/03/04 01:13:44;;;;;;;13.80;6.77;;;;;;;12.47;46.37;96970.81;5053772;28;20171;-63
2021/03/04 01:16:10;;;;;;;10.77;7.53;;;;;;;12.39;46.13;96966.69;5053733;28;20198;-65
2021/03/04 01:18:36;;;;;;;9.73;7.30;;;;;;;11.84;42.96;96960.63;5053731;28;20199;-64
2021/03/04 01:21:03;;;;;;;9.67;7.00;;;;;;;11.21;44.63;96964.41;5065128;28;20175;-57
2021/03/04 01:23:29;;;;;;;8.90;7.03;;;;;;;11.18;45.17;96973.50;5052536;28;20425;-58
2021/03/04 01:25:54;;;;;;;10.10;6.77;;;;;;;11.59;44.14;96959.00;5053201;28;20410;-65
2021/03/04 01:28:20;;;;;;;8.30;6.43;;;;;;;11.72;43.04;96964.97;5053443;28;20224;-57
2021/03/04 01:30:45;;;;;;;9.93;7.60;;;;;;;10.97;44.24;96960.72;5053840;28;20246;-64
2021/03/04 01:33:10;;;;;;;9.00;6.40;;;;;;;11.11;44.65;96950.91;5053298;28;20190;-63
2021/03/04 01:35:36;;;;;;;14.40;7.50;;;;;;;11.35;44.05;96947.47;5053706;28;20176;-57
2021/03/04 01:38:02;;;;;;;9.10;6.33;;;;;;;11.51;43.55;96944.28;5052357;28;20190;-64
2021/03/04 01:40:27;;;;;;;8.77;6.80;;;;;;;11.17;43.64;96940.34;5053435;28;20175;-57
2021/03/04 01:42:53;;;;;;;10.63;6.80;;;;;;;11.49;44.44;96935.00;5068156;28;20659;-59
2021/03/04 01:45:19;;;;;;;7.47;6.30;;;;;;;11.28;43.93;96929.13;5053627;28;20179;-63
2021/03/04 01:47:53;;;;;;;9.90;6.93;;;;;;;10.88;44.74;96930.47;5055841;28;20207;-63
2021/03/04 01:50:21;;;;;;;8.33;7.20;;;;;;;10.44;45.48;96921.81;5059896;28;20421;-57
2021/03/04 01:52:47;;;;;;;9.00;7.03;;;;;;;10.26;45.90;96925.97;5053142;28;20425;-64
2021/03/04 01:55:15;;;;;;;9.40;7.17;;;;;;;10.25;46.22;96926.97;5053715;28;20748;-63
2021/03/04 01:57:42;;;;;;;9.47;6.80;;;;;;;10.50;46.24;96923.63;5052864;28;20472;-63
2021/03/04 02:00:09;;;;;;;10.93;7.00;;;;;;;10.25;46.65;96913.06;5054720;28;20478;-63
2021/03/04 02:02:35;;;;;;;9.83;7.40;;;;;;;10.36;47.22;96915.03;5061238;28;20429;-57
2021/03/04 02:05:01;;;;;;;8.50;7.60;;;;;;;10.29;46.99;96912.41;5058849;28;20478;-59
2021/03/04 02:07:44;;;;;;;9.80;7.73;;;;;;;10.63;46.17;96915.66;5062134;28;20209;-63
2021/03/04 02:10:16;;;;;;;8.40;6.97;;;;;;;10.64;47.08;96914.63;5062293;28;20181;-59
2021/03/04 02:12:46;;;;;;;11.97;8.13;;;;;;;10.95;46.48;96904.91;5053172;28;20452;-57
2021/03/04 02:15:17;;;;;;;9.90;8.10;;;;;;;11.08;45.46;96901.38;5053174;28;20406;-60
2021/03/04 02:17:48;;;;;;;9.13;7.23;;;;;;;11.26;45.03;96904.06;5054626;28;20459;-63
2021/03/04 02:20:28;;;;;;;12.10;7.80;;;;;;;11.32;45.01;96896.09;5062129;28;20405;-63
2021/03/04 02:23:08;;;;;;;9.40;8.27;;;;;;;11.71;45.46;96899.38;5056225;28;20429;-57
2021/03/04 02:25:39;;;;;;;8.97;7.13;;;;;;;11.74;44.57;96889.22;5054849;28;20425;-57
2021/03/04 02:28:06;;;;;;;12.00;7.40;;;;;;;11.62;43.35;96884.88;5063133;28;20495;-64
2021/03/04 02:30:35;;;;;;;10.13;7.40;;;;;;;11.53;45.03;96886.19;5058686;28;20512;-57
2021/03/04 02:33:30;;;;;;;11.77;8.23;;;;;;;11.13;45.16;96883.94;5052541;28;20850;-64
2021/03/04 02:35:59;;;;;;;9.90;8.43;;;;;;;11.11;45.65;96879.91;5038674;28;20426;-64
2021/03/04 02:38:25;;;;;;;8.13;7.00;;;;;;;11.27;45.57;96885.41;5056309;28;20484;-63
2021/03/04 02:40:52;;;;;;;7.60;6.40;;;;;;;11.45;45.29;96878.59;5052801;28;20862;-57
2021/03/04 02:43:19;;;;;;;8.87;6.80;;;;;;;11.61;44.45;96873.56;5052684;28;20425;-65
2021/03/04 02:45:46;;;;;;;8.03;6.50;;;;;;;10.97;44.82;96881.84;5052852;28;20467;-57
2021/03/04 02:48:14;;;;;;;9.40;7.77;;;;;;;11.04;44.57;96877.34;5059981;28;20997;-63
2021/03/04 02:50:41;;;;;;;9.23;6.67;;;;;;;10.85;44.23;96877.50;5061736;28;20409;-61
2021/03/04 02:53:08;;;;;;;9.10;6.53;;;;;;;10.60;44.93;96879.31;5056123;28;20567;-63
2021/03/04 02:55:34;;;;;;;10.73;7.17;;;;;;;10.69;44.69;96873.56;5076113;28;20416;-58
2021/03/04 02:58:01;;;;;;;9.30;6.67;;;;;;;10.77;44.61;96869.88;5075797;28;20448;-57
2021/03/04 03:00:28;;;;;;;9.57;6.07;;;;;;;10.62;45.29;96866.75;5072484;28;20517;-64
2021/03/04 03:02:57;;;;;;;8.33;6.70;;;;;;;10.72;45.20;96862.66;5072964;28;20516;-57
2021/03/04 03:05:25;;;;;;;6.50;5.90;;;;;;;10.85;45.99;96853.84;5067192;28;20421;-60
2021/03/04 03:07:51;;;;;;;7.67;6.40;;;;;;;10.63;46.34;96863.94;5056354;28;20462;-57
2021/03/04 03:10:18;;;;;;;7.47;6.77;;;;;;;10.66;45.89;96852.97;5066075;28;20428;-63
2021/03/04 03:12:46;;;;;;;8.50;6.60;;;;;;;10.51;45.37;96856.94;5056278;28;20433;-57
2021/03/04 03:15:15;;;;;;;7.23;5.80;;;;;;;10.59;44.86;96857.47;5056235;28;20410;-63
2021/03/04 03:17:42;;;;;;;6.97;6.07;;;;;;;10.90;44.04;96848.75;5069947;28;20523;-58
2021/03/04 03:20:15;;;;;;;13.53;6.93;;;;;;;10.55;44.51;96845.78;5056057;28;20421;-58
2021/03/04 03:22:40;;;;;;;8.40;6.10;;;;;;;10.79;44.28;96847.63;5056463;28;20888;-57
2021/03/04 03:25:08;;;;;;;8.90;6.50;;;;;;;10.66;44.49;96852.97;5056252;28;20509;-57
2021/03/04 03:27:34;;;;;;;11.13;6.93;;;;;;;10.38;45.13;96848.13;5055152;28;20289;-64
2021/03/04 03:30:11;;;;;;;10.43;6.47;;;;;;;10.22;45.67;96850.44;5061653;28;20523;-63
2021/03/04 03:32:39;;;;;;;9.07;6.77;;;;;;;10.71;44.93;96845.25;5051376;28;20464;-64
2021/03/04 03:35:06;;;;;;;9.90;6.53;;;;;;;10.62;45.16;96845.72;5055947;28;20470;-58
2021/03/04 03:37:32;;;;;;;11.20;6.10;;;;;;;10.14;46.16;96851.50;5055524;28;20445;-57
2021/03/04 03:39:58;;;;;;;9.00;6.97;;;;;;;10.04;46.58;96848.50;5056810;28;20416;-57
2021/03/04 03:42:24;;;;;;;8.57;7.07;;;;;;;10.24;46.56;96851.84;5055535;28;20793;-57
2021/03/04 03:44:50;;;;;;;8.93;7.07;;;;;;;10.17;47.12;96845.84;5063883;28;20182;-57
2021/03/04 03:47:16;;;;;;;10.53;7.80;;;;;;;10.33;47.05;96847.94;5056260;28;20864;-63
2021/03/04 03:49:43;;;;;;;8.90;7.63;;;;;;;9.93;48.29;96845.72;5058589;28;20521;-63
2021/03/04 03:52:09;;;;;;;9.67;7.80;;;;;;;9.80;48.92;96843.94;5055578;28;20783;-56
2021/03/04 03:54:36;;;;;;;8.43;7.30;;;;;;;9.86;48.78;96832.63;5055585;28;20405;-63
2021/03/04 03:57:04;;;;;;;9.77;8.00;;;;;;;9.74;49.59;96830.88;5072931;28;20432;-57
2021/03/04 03:59:31;;;;;;;10.23;7.37;;;;;;;9.98;48.64;96845.91;5065569;28;20443;-63
2021/03/04 04:01:57;;;;;;;10.40;7.70;;;;;;;10.38;47.55;96832.34;5053624;28;20426;-63
2021/03/04 04:04:23;;;;;;;10.23;7.63;;;;;;;10.41;47.49;96832.94;5055241;28;20465;-63
2021/03/04 04:06:50;;;;;;;8.60;7.50;;;;;;;10.25;47.90;96827.19;5073098;28;20859;-58
2021/03/04 04:09:15;;;;;;;10.03;7.00;;;;;;;10.24;47.87;96830.03;5064068;28;20232;-57
2021/03/04 04:11:40;;;;;;;9.70;7.23;;;;;;;10.49;47.44;96825.59;5069821;28;20432;-63
2021/03/04 04:14:06;;;;;;;8.93;7.13;;;;;;;10.54;47.23;96819.72;5075285;28;20506;-57
2021/03/04 04:16:31;;;;;;;8.20;6.90;;;;;;;9.86;48.40;96827.38;5072415;28;20224;-63
2021/03/04 04:18:57;;;;;;;11.93;7.67;;;;;;;9.38;50.19;96820.09;5061790;28;20226;-59
2021/03/04 04:21:24;;;;;;;9.93;7.83;;;;;;;9.56;49.63;96817.63;5055304;28;20171;-64
2021/03/04 04:23:50;;;;;;;10.47;8.00;;;;;;;9.66;49.31;96818.78;5055878;28;20456;-56
2021/03/04 04:26:17;;;;;;;9.10;7.47;;;;;;;10.16;48.14;96817.16;5055725;28;21151;-57
2021/03/04 04:28:43;;;;;;;9.63;7.53;;;;;;;10.07;48.37;96818.41;5054681;28;20510;-57
2021/03/04 04:31:09;;;;;;;9.93;7.23;;;;;;;9.96;48.43;96822.50;5054947;28;21012;-58
2021/03/04 04:33:34;;;;;;;12.23;7.50;;;;;;;9.49;49.63;96822.09;5054582;28;20417;-63
2021/03/04 04:36:00;;;;;;;8.40;7.20;;;;;;;9.47;49.50;96811.81;5063993;28;20673;-57
2021/03/04 04:38:25;;;;;;;12.00;7.20;;;;;;;9.46;49.63;96818.06;5059658;28;20217;-57
2021/03/04 04:40:51;;;;;;;9.40;6.63;;;;;;;9.54;49.23;96809.97;5056668;28;20522;-57
2021/03/04 04:43:17;;;;;;;9.43;7.80;;;;;;;9.61;49.75;96805.50;5074696;28;20202;-63
2021/03/04 04:45:43;;;;;;;8.10;6.60;;;;;;;9.44;49.90;96800.94;5074490;28;20904;-57
2021/03/04 04:48:09;;;;;;;12.30;7.47;;;;;;;9.44;49.69;96795.69;5067614;28;20209;-63
2021/03/04 04:50:34;;;;;;;12.20;8.27;;;;;;;9.46;49.41;96802.31;5054234;28;20178;-63
2021/03/04 04:52:59;;;;;;;9.00;7.20;;;;;;;9.27;49.93;96801.41;5054181;28;20281;-63
2021/03/04 04:55:25;;;;;;;8.20;6.83;;;;;;;9.27;50.46;96795.34;5054226;28;20543;-63
2021/03/04 04:57:50;;;;;;;8.80;7.13;;;;;;;9.80;48.42;96791.47;5053749;28;20660;-63
2021/03/04 05:00:16;;;;;;;7.83;7.07;;;;;;;9.86;48.63;96790.63;5053020;28;20178;-58
2021/03/04 05:02:41;;;;;;;12.90;7.90;;;;;;;9.57;49.10;96788.56;5054072;28;20182;-56
2021/03/04 05:05:08;;;;;;;12.90;8.23;;;;;;;9.74;48.62;96778.41;5055067;28;20825;-63
2021/03/04 05:07:34;;;;;;;11.67;7.90;;;;;;;9.56;49.16;96778.28;5058291;28;20691;-57
2021/03/04 05:10:00;;;;;;;11.77;8.47;;;;;;;10.13;47.41;96776.38;5054136;28;20497;-63
2021/03/04 05:12:25;;;;;;;11.63;7.93;;;;;;;9.81;48.19;96777.34;5053728;28;20578;-63
2021/03/04 05:14:52;;;;;;;10.90;7.17;;;;;;;9.93;47.98;96780.91;5053599;28;20531;-62
2021/03/04 05:17:20;;;;;;;10.73;7.13;;;;;;;10.40;47.29;96778.81;5054290;28;20667;-63
2021/03/04 05:19:46;;;;;;;8.30;7.17;;;;;;;10.74;46.54;96773.06;5064741;28;20429;-63
2021/03/04 05:22:11;;;;;;;10.17;7.50;;;;;;;10.58;45.88;96774.41;5053544;28;20424;-57
2021/03/04 05:24:37;;;;;;;9.00;6.60;;;;;;;10.44;46.46;96769.47;5053613;28;20647;-63
2021/03/04 05:27:02;;;;;;;8.13;7.20;;;;;;;10.74;46.19;96771.25;5053184;28;20193;-64
2021/03/04 05:29:28;;;;;;;9.93;7.63;;;;;;;10.80;46.06;96764.28;5060503;28;20192;-64
2021/03/04 05:31:53;;;;;;;8.83;6.33;;;;;;;10.92;46.63;96760.78;5073707;28;20174;-63
2021/03/04 05:34:18;;;;;;;10.53;7.80;;;;;;;10.78;45.83;96755.84;5073579;28;20628;-57
2021/03/04 05:36:45;;;;;;;8.23;7.13;;;;;;;10.67;45.92;96754.72;5055458;28;20206;-64
2021/03/04 05:39:10;;;;;;;9.20;7.93;;;;;;;10.72;45.52;96754.91;5053637;28;20195;-63
2021/03/04 05:41:36;;;;;;;11.13;7.83;;;;;;;10.57;45.96;96756.22;5057869;28;20420;-57
2021/03/04 05:44:02;;;;;;;9.80;7.60;;;;;;;10.36;46.14;96752.97;5063765;28;20185;-58
2021/03/04 05:46:28;;;;;;;8.60;6.70;;;;;;;10.20;46.45;96744.81;5073039;28;20457;-63
2021/03/04 05:48:56;;;;;;;10.43;7.27;;;;;;;10.13;46.89;96741.41;5061797;28;20283;-63
2021/03/04 05:51:35;;;;;;;10.20;7.57;;;;;;;10.40;46.12;96745.44;5057082;28;20427;-57
2021/03/04 05:54:04;;;;;;;10.87;7.10;;;;;;;10.47;45.86;96748.84;5053393;28;20413;-63
2021/03/04 05:56:29;;;;;;;9.80;7.40;;;;;;;10.79;45.72;96746.94;5060817;28;20431;-64
2021/03/04 05:58:58;;;;;;;11.80;7.33;;;;;;;10.81;44.97;96731.75;5073064;28;20427;-63
2021/03/04 06:01:25;;;;;;;8.97;7.27;;;;;;;11.00;45.76;96742.06;5066802;28;20420;-64
2021/03/04 06:03:50;;;;;;;10.63;7.50;;;;;;;11.00;44.65;96739.44;5060122;28;20456;-58
2021/03/04 06:06:16;;;;;;;10.23;7.57;;;;;;;10.71;45.98;96745.38;5072765;28;20849;-64
2021/03/04 06:08:41;;;;;;;14.70;8.10;;;;;;;10.28;46.60;96745.38;5068074;28;20255;-57
2021/03/04 06:11:07;;;;;;;9.10;7.33;;;;;;;10.07;47.14;96737.00;5072445;28;20175;-58
2021/03/04 06:13:32;;;;;;;11.53;7.23;;;;;;;10.14;47.04;96743.06;5073055;28;20172;-63
2021/03/04 06:16:00;;;;;;;9.17;7.70;;;;;;;10.15;47.22;96734.13;5072431;28;20219;-58
2021/03/04 06:18:38;;;;;;;11.60;7.60;;;;;;;10.44;46.61;96733.50;5065446;28;20198;-63
2021/03/04 06:21:04;;;;;;;11.67;7.30;;;;;;;10.45;47.14;96737.75;5059394;28;20415;-63
2021/03/04 06:23:32;;;;;;;10.10;8.07;;;;;;;10.45;46.53;96729.88;5054402;28;20421;-63
2021/03/04 06:25:58;;;;;;;14.33;7.50;;;;;;;9.82;48.25;96734.34;5057188;28;20229;-64
2021/03/04 06:28:31;;;;;;;12.90;7.40;;;;;;;9.64;49.42;96731.63;5070477;28;20448;-63
2021/03/04 06:30:56;;;;;;;10.77;7.97;;;;;;;9.73;49.03;96737.44;5075880;28;20227;-57
2021/03/04 06:33:21;;;;;;;10.73;7.80;;;;;;;9.22;50.28;96735.63;5057727;28;20426;-63
2021/03/04 06:35:47;;;;;;;11.13;7.93;;;;;;;9.13;50.67;96739.50;5058040;28;20184;-57
2021/03/04 06:38:22;;;;;;;11.03;7.80;;;;;;;9.34;50.53;96741.06;5056413;28;20181;-57
2021/03/04 06:40:50;;;;;;;13.77;8.40;;;;;;;9.32;50.34;96738.66;5064549;28;20179;-57
2021/03/04 06:43:24;;;;;;;12.30;7.87;;;;;;;9.25;51.10;96740.50;5055920;28;20444;-57
2021/03/04 06:46:00;;;;;;;17.43;9.30;;;;;;;9.25;50.85;96732.63;5057640;28;20527;-63
2021/03/04 06:48:25;;;;;;;9.70;7.57;;;;;;;9.33;50.92;96736.81;5048884;28;20450;-57
2021/03/04 06:51:02;;;;;;;13.00;8.10;;;;;;;9.25;50.73;96739.69;5064985;28;20427;-63
2021/03/04 06:53:29;;;;;;;12.50;8.90;;;;;;;9.18;51.42;96739.72;5056570;28;20252;-63
2021/03/04 06:56:04;;;;;;;14.10;8.20;;;;;;;8.98;51.62;96731.09;5064945;28;20521;-63
2021/03/04 06:58:41;;;;;;;11.43;8.60;;;;;;;9.21;51.25;96730.63;5076470;28;20435;-57
2021/03/04 07:01:17;;;;;;;14.63;8.47;;;;;;;9.35;50.62;96737.41;5061060;28;20794;-63
2021/03/04 07:03:45;;;;;;;14.00;8.73;;;;;;;9.11;51.34;96738.13;5056341;28;20889;-57
2021/03/04 07:06:15;;;;;;;10.17;7.90;;;;;;;9.03;51.46;96741.78;5055665;28;20485;-64
2021/03/04 07:08:43;;;;;;;8.90;7.03;;;;;;;9.05;51.70;96737.13;5056530;28;20459;-58
2021/03/04 07:11:13;;;;;;;12.50;8.30;;;;;;;9.41;50.79;96743.63;5062341;28;20422;-64
2021/03/04 07:13:40;;;;;;;11.50;9.10;;;;;;;9.38;51.15;96732.53;5069398;28;20430;-57
2021/03/04 07:16:07;;;;;;;11.30;7.90;;;;;;;9.48;51.09;96741.78;5074071;28;20467;-64
2021/03/04 07:18:52;;;;;;;10.80;8.10;;;;;;;9.71;50.48;96731.59;5075938;28;20421;-57
2021/03/04 07:21:18;;;;;;;13.30;8.00;;;;;;;9.66;50.42;96737.47;5066405;28;20483;-64
2021/03/04 07:23:46;;;;;;;12.70;8.50;;;;;;;9.66;50.37;96728.78;5056273;28;20398;-64
2021/03/04 07:26:14;;;;;;;14.00;8.43;;;;;;;9.62;50.33;96722.38;5055482;28;20474;-65
2021/03/04 07:28:43;;;;;;;12.30;8.97;;;;;;;9.84;50.24;96726.25;5056059;28;20432;-65
2021/03/04 07:31:10;;;;;;;11.40;7.50;;;;;;;9.86;49.82;96725.03;5056142;28;20755;-64
2021/03/04 07:33:43;;;;;;;9.53;7.07;;;;;;;10.22;48.89;96716.50;5056613;28;20423;-59
2021/03/04 07:36:10;;;;;;;11.33;6.67;;;;;;;9.88;49.81;96720.38;5054411;28;20427;-64
2021/03/04 07:38:36;;;;;;;9.77;7.27;;;;;;;9.94;49.93;96722.16;5055688;28;20515;-64
2021/03/04 07:41:13;;;;;;;9.90;7.40;;;;;;;10.41;48.65;96715.56;5071165;28;20564;-57
2021/03/04 07:43:49;;;;;;;10.60;7.50;;;;;;;10.28;48.39;96713.84;5075654;28;20412;-64
2021/03/04 07:46:43;;;;;;;10.80;6.77;;;;;;;9.98;48.46;96715.44;5075292;28;20907;-64
2021/03/04 07:49:09;;;;;;;10.27;7.80;;;;;;;9.83;49.61;96711.53;5075509;28;20432;-57
2021/03/04 07:51:47;;;;;;;11.40;7.60;;;;;;;10.19;48.96;96709.88;5061301;28;20517;-56
2021/03/04 07:54:13;;;;;;;10.50;7.17;;;;;;;10.18;48.26;96705.63;5055632;28;20175;-64
2021/03/04 07:56:39;;;;;;;9.43;6.43;;;;;;;10.30;47.93;96705.75;5054778;28;20487;-64
2021/03/04 07:59:17;;;;;;;10.10;7.83;;;;;;;10.14;48.48;96707.09;5055127;28;20524;-57
2021/03/04 08:01:54;;;;;;;9.50;7.50;;;;;;;10.35;47.79;96711.97;5055147;28;20175;-64
2021/03/04 08:04:22;;;;;;;10.77;7.40;;;;;;;10.31;47.90;96697.66;5055517;28;20460;-57
2021/03/04 08:06:50;;;;;;;11.50;7.07;;;;;;;10.18;47.94;96702.22;5054768;28;20547;-57
2021/03/04 08:09:29;;;;;;;13.33;7.43;;;;;;;10.29;47.83;96701.53;5069992;28;20444;-64
2021/03/04 08:12:13;;;;;;;11.40;7.50;;;;;;;10.30;47.50;96696.06;5074884;28;20526;-63
2021/03/04 08:14:54;;;;;;;12.47;6.87;;;;;;;10.35;46.80;96688.34;5060514;28;20942;-56
2021/03/04 08:17:19;;;;;;;13.23;7.77;;;;;;;10.52;46.89;96693.84;5054573;28;20432;-66
2021/03/04 08:19:48;;;;;;;12.63;7.70;;;;;;;10.74;46.70;96691.59;5055921;28;20426;-65
2021/03/04 08:22:18;;;;;;;9.70;7.20;;;;;;;11.04;46.53;96689.84;5056126;28;20183;-64
2021/03/04 08:24:46;;;;;;;13.23;7.40;;;;;;;11.58;44.90;96684.50;5055108;28;20422;-64
2021/03/04 08:27:11;;;;;;;12.57;7.80;;;;;;;11.33;45.59;96689.06;5057918;28;20461;-64
2021/03/04 08:29:46;;;;;;;8.67;7.70;;;;;;;11.31;44.54;96672.72;5069442;28;20420;-64
2021/03/04 08:32:13;;;;;;;14.00;7.50;;;;;;;10.92;45.33;96679.28;5074899;28;20178;-65
2021/03/04 08:34:39;;;;;;;9.67;6.70;;;;;;;10.67;45.29;96680.34;5066263;28;20804;-64
2021/03/04 08:37:06;;;;;;;8.10;7.03;;;;;;;10.67;46.69;96673.25;5054056;28;20512;-64
2021/03/04 08:39:34;;;;;;;10.80;7.80;;;;;;;10.46;47.00;96673.69;5054788;28;20401;-57
2021/03/04 08:42:08;;;;;;;11.17;7.97;;;;;;;10.83;45.95;96664.00;5062416;28;20420;-57
2021/03/04 08:44:33;;;;;;;10.30;7.20;;;;;;;10.95;45.62;96670.94;5056069;28;20428;-57
2021/03/04 08:46:59;;;;;;;14.20;7.70;;;;;;;11.32;45.08;96659.31;5053171;28;20452;-64
2021/03/04 08:49:25;;;;;;;13.63;8.17;;;;;;;11.47;45.17;96658.16;5056505;28;20254;-64
2021/03/04 08:51:50;;;;;;;13.47;8.20;;;;;;;11.66;44.20;96657.91;5064291;28;20175;-64
2021/03/04 08:54:27;;;;;;;10.53;7.73;;;;;;;11.59;44.63;96659.78;5054290;28;20265;-56
2021/03/04 08:56:57;;;;;;;11.40;7.57;;;;;;;11.55;43.99;96663.91;5071978;28;20166;-64
2021/03/04 08:59:24;;;;;;;8.90;6.47;;;;;;;11.59;44.63;96653.72;5074379;28;20789;-57
2021/03/04 09:01:50;;;;;;;10.10;7.30;;;;;;;11.32;44.74;96651.44;5055710;28;20441;-61
2021/03/04 09:04:22;;;;;;;13.70;7.17;;;;;;;11.55;44.81;96653.38;5073761;28;20413;-56
2021/03/04 09:06:48;;;;;;;10.83;8.50;;;;;;;11.61;44.61;96652.47;5066288;28;20195;-57
2021/03/04 09:09:25;;;;;;;11.53;6.80;;;;;;;11.42;44.94;96645.66;5053908;28;20468;-64
2021/03/04 09:11:51;;;;;;;14.83;8.27;;;;;;;11.71;45.29;96647.50;5054057;28;20266;-64
2021/03/04 09:14:17;;;;;;;15.20;8.47;;;;;;;11.82;45.37;96646.72;5052329;28;20883;-58
2021/03/04 09:16:51;;;;;;;14.40;7.43;;;;;;;11.64;45.52;96638.84;5049299;28;20540;-64
2021/03/04 09:19:35;;;;;;;12.20;7.30;;;;;;;11.35;46.07;96640.50;5053106;28;21007;-57
2021/03/04 09:22:04;;;;;;;15.97;7.77;;;;;;;11.62;45.57;96634.84;5052705;28;20775;-57
2021/03/04 09:24:32;;;;;;;13.23;7.97;;;;;;;11.76;45.16;96633.66;5052108;28;20472;-57
2021/03/04 09:27:00;;;;;;;11.50;8.00;;;;;;;11.83;45.28;96634.38;5053077;28;20458;-58
2021/03/04 09:29:26;;;;;;;11.53;6.77;;;;;;;11.84;45.88;96626.22;5053549;28;20418;-58
2021/03/04 09:31:55;;;;;;;11.87;8.10;;;;;;;12.09;45.25;96626.84;5051895;28;20432;-57
2021/03/04 09:34:31;;;;;;;14.23;8.07;;;;;;;12.36;44.56;96621.91;5041985;28;20187;-57
2021/03/04 09:37:26;;;;;;;12.50;7.90;;;;;;;12.29;44.92;96622.03;5033261;28;20428;-64
2021/03/04 09:39:53;;;;;;;9.80;7.60;;;;;;;12.52;44.98;96612.50;5032662;28;20434;-57
2021/03/04 09:42:21;;;;;;;14.77;8.73;;;;;;;12.75;44.22;96607.19;5032343;28;20441;-57
2021/03/04 09:44:53;;;;;;;11.33;7.23;;;;;;;12.88;43.98;96606.94;5050770;28;20500;-64
2021/03/04 09:47:21;;;;;;;8.83;5.90;;;;;;;12.48;44.17;96606.91;5071327;28;20530;-64
2021/03/04 09:49:47;;;;;;;9.63;6.67;;;;;;;12.37;44.72;96600.59;5050826;28;20438;-56
2021/03/04 09:52:21;;;;;;;11.90;7.70;;;;;;;12.71;44.62;96596.31;5049926;28;20421;-60
2021/03/04 09:54:46;;;;;;;14.70;6.83;;;;;;;12.64;45.33;96592.19;5049844;28;20689;-63
2021/03/04 09:57:21;;;;;;;11.40;7.43;;;;;;;13.00;44.46;96594.50;5048939;28;20505;-66
2021/03/04 09:59:48;;;;;;;10.70;7.00;;;;;;;13.18;44.24;96586.44;5039405;28;20550;-61
2021/03/04 10:02:15;;;;;;;12.40;7.87;;;;;;;13.38;43.04;96584.97;5039481;28;20425;-64
2021/03/04 10:05:03;;;;;;;20.33;8.30;;;;;;;13.77;42.92;96579.81;5065950;28;20923;-64
2021/03/04 10:07:30;;;;;;;8.20;6.50;;;;;;;13.57;44.49;96592.69;5049240;28;20928;-61
2021/03/04 10:09:57;;;;;;;13.67;7.17;;;;;;;13.47;43.42;96577.47;5049420;28;20406;-64
2021/03/04 10:12:23;;;;;;;10.43;7.83;;;;;;;13.64;43.45;96572.19;5046668;28;20464;-60
2021/03/04 10:14:51;;;;;;;12.27;6.50;;;;;;;13.49;43.39;96588.59;5029741;28;20426;-58
2021/03/04 10:17:17;;;;;;;16.40;8.73;;;;;;;13.70;43.51;96573.88;5030236;28;20477;-57
2021/03/04 10:19:43;;;;;;;14.23;7.90;;;;;;;13.97;43.18;96574.81;5029721;28;20410;-64
2021/03/04 10:22:09;;;;;;;12.67;8.60;;;;;;;13.97;43.29;96577.47;5029467;28;20426;-58
2021/03/04 10:24:35;;;;;;;14.93;7.90;;;;;;;14.11;41.66;96562.91;5032139;28;20425;-64
2021/03/04 10:27:04;;;;;;;13.73;7.90;;;;;;;14.06;43.37;96574.19;5045048;28;20203;-57
2021/03/04 10:29:31;;;;;;;16.40;7.97;;;;;;;14.31;42.67;96571.94;5035873;28;20419;-59
2021/03/04 10:31:56;;;;;;;10.23;7.77;;;;;;;15.21;42.72;96568.81;5049482;28;20823;-61
2021/03/04 10:34:22;;;;;;;18.23;11.17;;;;;;;15.09;42.28;96573.44;5049438;28;20434;-57
2021/03/04 10:36:48;;;;;;;17.30;9.03;;;;;;;15.55;42.16;96564.91;5048766;28;20172;-57
2021/03/04 10:39:15;;;;;;;14.23;8.73;;;;;;;15.82;40.64;96555.06;5048471;28;20441;-60
2021/03/04 10:41:42;;;;;;;17.90;9.03;;;;;;;15.74;40.71;96565.34;5049126;28;20648;-62
2021/03/04 10:44:08;;;;;;;11.47;8.50;;;;;;;15.49;40.13;96557.19;5049408;28;20406;-59
2021/03/04 10:46:33;;;;;;;14.57;9.30;;;;;;;15.72;39.43;96551.56;5048744;28;20519;-58
2021/03/04 10:48:59;;;;;;;12.63;8.73;;;;;;;15.73;41.68;96550.50;5042522;28;20442;-59
2021/03/04 10:51:24;;;;;;;13.10;8.00;;;;;;;16.29;40.11;96550.63;5028896;28;20539;-59
2021/03/04 10:53:50;;;;;;;12.20;9.57;;;;;;;16.33;40.55;96551.72;5029522;28;20178;-59
2021/03/04 10:56:15;;;;;;;12.40;8.13;;;;;;;16.93;38.64;96551.22;5039947;28;20190;-58
2021/03/04 10:58:40;;;;;;;11.63;8.10;;;;;;;17.21;38.60;96545.44;5049156;28;20920;-59
2021/03/04 11:01:06;;;;;;;12.10;8.57;;;;;;;16.87;37.15;96546.16;5048861;28;20181;-57
2021/03/04 11:03:31;;;;;;;13.77;8.30;;;;;;;16.01;39.11;96547.53;5063724;28;20197;-60
2021/03/04 11:05:56;;;;;;;16.93;9.17;;;;;;;15.78;39.11;96545.25;5056179;28;20182;-58
2021/03/04 11:08:22;;;;;;;9.80;8.13;;;;;;;15.94;39.74;96545.09;5049066;28;20211;-56
2021/03/04 11:10:47;;;;;;;12.67;9.07;;;;;;;15.86;40.70;96540.28;5049575;28;20262;-59
2021/03/04 11:13:15;;;;;;;12.40;9.33;;;;;;;16.63;38.85;96535.16;5072723;28;20205;-61
2021/03/04 11:15:41;;;;;;;13.23;8.10;;;;;;;16.99;38.22;96528.16;5072248;28;20189;-61
2021/03/04 11:18:06;;;;;;;15.10;9.90;;;;;;;16.94;38.66;96525.50;5072427;28;20416;-57
2021/03/04 11:20:32;;;;;;;19.53;10.77;;;;;;;16.48;38.71;96523.69;5054365;28;20690;-58
2021/03/04 11:22:58;;;;;;;23.13;10.37;;;;;;;16.96;38.41;96524.16;5052734;28;20899;-61
2021/03/04 11:25:24;;;;;;;15.97;10.03;;;;;;;16.65;39.39;96519.78;5043079;28;20186;-61
2021/03/04 11:27:49;;;;;;;15.20;9.00;;;;;;;16.26;39.50;96514.03;5051548;28;20544;-57
2021/03/04 11:30:15;;;;;;;12.10;8.50;;;;;;;15.64;39.97;96528.16;5052497;28;20221;-59
2021/03/04 11:32:40;;;;;;;12.97;8.30;;;;;;;15.62;39.92;96514.41;5037891;28;20646;-59